createdAt,value
2022-11-27T00:03:49.871Z,9.90
2022-11-27T00:06:19.755Z,10.32
2022-11-27T00:08:47.115Z,11.40
2022-11-27T00:11:16.833Z,11.80
2022-11-27T00:13:45.448Z,11.10
2022-11-27T00:16:13.437Z,11.55
2022-11-27T00:18:40.801Z,12.35
2022-11-27T00:21:11.480Z,12.15
2022-11-27T00:23:38.705Z,12.07
2022-11-27T00:26:06.654Z,12.50
2022-11-27T00:28:33.962Z,11.13
2022-11-27T00:31:02.400Z,11.77
2022-11-27T00:33:29.523Z,10.45
2022-11-27T00:35:56.353Z,10.82
2022-11-27T00:38:23.158Z,11.85
2022-11-27T00:40:49.867Z,12.10
2022-11-27T00:43:16.601Z,11.20
2022-11-27T00:45:43.325Z,12.75
2022-11-27T00:48:10.030Z,11.23
2022-11-27T00:50:36.708Z,13.18
2022-11-27T00:53:03.420Z,12.75
2022-11-27T00:55:30.123Z,12.52
2022-11-27T00:57:56.843Z,12.40
2022-11-27T01:00:24.953Z,12.13
2022-11-27T01:02:51.703Z,10.43
2022-11-27T01:05:18.529Z,11.77
2022-11-27T01:07:45.344Z,9.93
2022-11-27T01:10:12.258Z,10.23
2022-11-27T01:12:39.081Z,11.20
2022-11-27T01:15:06.242Z,10.20
2022-11-27T01:17:32.961Z,10.73
2022-11-27T01:19:59.695Z,9.60
2022-11-27T01:22:26.422Z,10.38
2022-11-27T01:24:53.123Z,9.15
2022-11-27T01:27:19.846Z,8.63
2022-11-27T01:29:46.578Z,8.88
2022-11-27T01:32:13.530Z,8.40
2022-11-27T01:34:40.489Z,8.57
2022-11-27T01:37:07.279Z,8.85
2022-11-27T01:39:34.043Z,7.47
2022-11-27T01:42:00.849Z,8.00
2022-11-27T01:44:27.492Z,8.18
2022-11-27T01:47:07.106Z,8.23
2022-11-27T01:49:45.955Z,8.95
2022-11-27T01:52:32.913Z,7.80
2022-11-27T01:55:48.868Z,7.15
2022-11-27T01:58:21.438Z,7.10
2022-11-27T02:00:48.258Z,7.45
2022-11-27T02:03:16.199Z,6.95
2022-11-27T02:05:43.049Z,7.22
2022-11-27T02:08:12.647Z,7.45
2022-11-27T02:10:54.580Z,6.47
2022-11-27T02:13:35.558Z,7.28
2022-11-27T02:16:45.127Z,6.55
2022-11-27T02:19:26.935Z,6.88
2022-11-27T02:22:04.682Z,7.70
2022-11-27T02:24:42.969Z,9.10
2022-11-27T02:27:28.316Z,8.93
2022-11-27T02:29:59.018Z,7.13
2022-11-27T02:32:40.535Z,9.63
2022-11-27T02:35:18.352Z,7.43
2022-11-27T02:38:20.854Z,7.05
2022-11-27T02:40:55.440Z,8.88
2022-11-27T02:43:28.393Z,6.47
2022-11-27T02:45:57.782Z,7.82
2022-11-27T02:48:31.085Z,8.10
2022-11-27T02:50:57.789Z,8.32
2022-11-27T02:53:33.989Z,7.07
2022-11-27T02:56:03.366Z,7.88
2022-11-27T02:58:30.735Z,7.70
2022-11-27T03:00:59.883Z,8.27
2022-11-27T03:03:34.031Z,7.13
2022-11-27T03:06:08.636Z,7.18
2022-11-27T03:09:02.383Z,7.18
2022-11-27T03:11:30.847Z,8.05
2022-11-27T03:14:02.118Z,8.57
2022-11-27T03:16:34.980Z,8.83
2022-11-27T03:19:23.229Z,7.80
2022-11-27T03:21:58.662Z,7.00
2022-11-27T03:24:26.721Z,7.68
2022-11-27T03:26:53.491Z,8.20
2022-11-27T03:29:31.882Z,8.20
2022-11-27T03:31:59.182Z,8.23
2022-11-27T03:34:26.435Z,7.93
2022-11-27T03:36:53.133Z,7.93
2022-11-27T03:39:23.818Z,8.63
2022-11-27T03:41:58.372Z,7.50
2022-11-27T03:44:42.159Z,8.30
2022-11-27T03:47:34.123Z,8.60
2022-11-27T03:50:16.403Z,8.80
2022-11-27T03:52:54.186Z,7.40
2022-11-27T03:55:41.166Z,7.65
2022-11-27T03:58:28.962Z,8.43
2022-11-27T04:00:57.399Z,7.85
2022-11-27T04:03:27.602Z,8.68
2022-11-27T04:05:54.507Z,9.15
2022-11-27T04:08:21.483Z,8.98
2022-11-27T04:10:48.243Z,9.63
2022-11-27T04:13:15.267Z,9.05
2022-11-27T04:15:42.272Z,8.23
2022-11-27T04:18:09.174Z,8.07
2022-11-27T04:20:35.939Z,9.07
2022-11-27T04:23:02.879Z,8.98
2022-11-27T04:25:29.681Z,8.68
2022-11-27T04:27:56.483Z,9.02
2022-11-27T04:30:23.633Z,8.70
2022-11-27T04:32:50.318Z,8.20
2022-11-27T04:35:17.408Z,9.77
2022-11-27T04:37:44.221Z,8.55
2022-11-27T04:40:11.427Z,8.85
2022-11-27T04:42:38.107Z,9.80
2022-11-27T04:45:05.350Z,8.98
2022-11-27T04:47:32.059Z,9.40
2022-11-27T04:49:58.761Z,8.45
2022-11-27T04:52:25.454Z,9.55
2022-11-27T04:54:56.814Z,8.93
2022-11-27T04:57:26.574Z,9.43
2022-11-27T04:59:53.266Z,8.80
2022-11-27T05:02:20.028Z,9.70
2022-11-27T05:04:46.702Z,10.00
2022-11-27T05:07:13.469Z,9.40
2022-11-27T05:09:40.267Z,8.77
2022-11-27T05:12:07.059Z,9.00
2022-11-27T05:14:33.997Z,8.02
2022-11-27T05:17:00.773Z,10.95
2022-11-27T05:19:29.937Z,10.85
2022-11-27T05:21:57.037Z,9.30
2022-11-27T05:24:26.406Z,8.73
2022-11-27T05:26:53.178Z,9.63
2022-11-27T05:29:20.734Z,7.55
2022-11-27T05:31:47.748Z,8.82
2022-11-27T05:34:15.129Z,8.77
2022-11-27T05:36:43.021Z,8.73
2022-11-27T05:39:10.612Z,9.77
2022-11-27T05:41:39.297Z,9.70
2022-11-27T05:44:06.536Z,9.40
2022-11-27T05:46:33.699Z,8.60
2022-11-27T05:49:00.455Z,8.68
2022-11-27T05:51:27.203Z,10.35
2022-11-27T05:53:54.010Z,9.57
2022-11-27T05:56:20.826Z,10.68
2022-11-27T05:58:48.911Z,9.02
2022-11-27T06:01:17.910Z,8.65
2022-11-27T06:03:44.748Z,9.38
2022-11-27T06:06:17.817Z,8.80
2022-11-27T06:08:45.287Z,9.80
2022-11-27T06:11:16.366Z,8.65
2022-11-27T06:13:44.146Z,8.73
2022-11-27T06:16:19.746Z,9.13
2022-11-27T06:18:50.627Z,9.63
2022-11-27T06:21:17.555Z,9.73
2022-11-27T06:23:44.723Z,8.75
2022-11-27T06:26:20.233Z,8.75
2022-11-27T06:28:47.958Z,8.68
2022-11-27T06:31:20.926Z,8.77
2022-11-27T06:33:49.440Z,9.43
2022-11-27T06:36:17.139Z,9.18
2022-11-27T06:38:44.495Z,8.95
2022-11-27T06:41:13.897Z,7.78
2022-11-27T06:43:40.764Z,8.38
2022-11-27T06:46:11.201Z,8.50
2022-11-27T06:48:38.036Z,9.25
2022-11-27T06:51:06.903Z,9.15
2022-11-27T06:53:36.097Z,9.93
2022-11-27T06:56:04.699Z,9.25
2022-11-27T06:58:31.537Z,10.52
2022-11-27T07:00:59.847Z,10.23
2022-11-27T07:03:29.831Z,8.85
2022-11-27T07:06:03.918Z,10.15
2022-11-27T07:08:31.036Z,10.65
2022-11-27T07:11:07.288Z,8.50
2022-11-27T07:13:34.303Z,9.57
2022-11-27T07:16:07.127Z,9.02
2022-11-27T07:18:42.433Z,9.43
2022-11-27T07:21:10.053Z,8.27
2022-11-27T07:23:37.379Z,7.55
2022-11-27T07:26:12.691Z,8.68
2022-11-27T07:28:40.050Z,9.60
2022-11-27T07:31:06.862Z,9.25
2022-11-27T07:33:33.687Z,8.93
2022-11-27T07:36:05.585Z,9.35
2022-11-27T07:38:32.851Z,8.15
2022-11-27T07:41:01.814Z,8.90
2022-11-27T07:43:29.199Z,8.32
2022-11-27T07:45:56.731Z,8.75
2022-11-27T07:48:23.720Z,7.50
2022-11-27T07:50:50.680Z,8.65
2022-11-27T07:53:17.495Z,8.63
2022-11-27T07:55:44.150Z,7.82
2022-11-27T07:58:10.961Z,9.05
2022-11-27T08:00:38.770Z,7.65
2022-11-27T08:03:05.551Z,8.70
2022-11-27T08:05:35.499Z,7.93
2022-11-27T08:08:04.225Z,8.10
2022-11-27T08:10:34.694Z,8.30
2022-11-27T08:13:01.418Z,8.25
2022-11-27T08:15:28.079Z,8.18
2022-11-27T08:17:54.819Z,8.95
2022-11-27T08:20:21.614Z,8.95
2022-11-27T08:22:48.374Z,8.57
2022-11-27T08:25:15.637Z,8.20
2022-11-27T08:27:42.354Z,7.95
2022-11-27T08:30:09.836Z,7.97
2022-11-27T08:32:39.950Z,8.07
2022-11-27T08:35:07.475Z,7.57
2022-11-27T08:37:34.739Z,8.68
2022-11-27T08:40:01.702Z,6.95
2022-11-27T08:42:28.577Z,7.05
2022-11-27T08:44:55.365Z,8.00
2022-11-27T08:47:22.136Z,8.55
2022-11-27T08:49:48.892Z,7.22
2022-11-27T08:52:15.613Z,7.38
2022-11-27T08:54:43.179Z,7.78
2022-11-27T08:57:10.195Z,8.02
2022-11-27T08:59:36.897Z,8.10
2022-11-27T09:02:03.666Z,8.52
2022-11-27T09:04:30.465Z,7.43
2022-11-27T09:07:06.615Z,7.13
2022-11-27T09:09:33.297Z,7.20
2022-11-27T09:12:00.039Z,7.10
2022-11-27T09:14:26.807Z,6.85
2022-11-27T09:16:53.940Z,6.57
2022-11-27T09:19:21.643Z,6.85
2022-11-27T09:21:50.747Z,5.38
2022-11-27T09:24:17.500Z,5.25
2022-11-27T09:26:44.751Z,5.55
2022-11-27T09:29:11.498Z,4.40
2022-11-27T09:31:38.472Z,4.68
2022-11-27T09:34:05.724Z,5.00
2022-11-27T09:36:32.512Z,5.18
2022-11-27T09:38:59.516Z,4.72
2022-11-27T09:41:42.047Z,4.13
2022-11-27T09:44:50.189Z,4.68
2022-11-27T09:47:30.802Z,4.50
2022-11-27T09:50:13.505Z,5.03
2022-11-27T09:52:56.567Z,4.47
2022-11-27T09:55:30.007Z,4.57
2022-11-27T09:58:26.315Z,3.83
2022-11-27T10:00:53.048Z,4.78
2022-11-27T10:03:27.447Z,4.38
2022-11-27T10:06:03.268Z,4.20
2022-11-27T10:08:55.428Z,4.47
2022-11-27T10:11:25.215Z,5.18
2022-11-27T10:14:10.478Z,4.40
2022-11-27T10:17:07.773Z,4.53
2022-11-27T10:19:57.883Z,4.57
2022-11-27T10:22:50.385Z,4.18
2022-11-27T10:25:24.211Z,4.13
2022-11-27T10:28:13.661Z,4.68
2022-11-27T10:30:55.829Z,4.03
2022-11-27T10:33:28.029Z,3.92
2022-11-27T10:35:54.908Z,4.10
2022-11-27T10:38:26.510Z,4.07
2022-11-27T10:41:18.690Z,3.90
2022-11-27T10:44:01.768Z,4.25
2022-11-27T10:46:32.090Z,3.72
2022-11-27T10:48:58.849Z,3.60
2022-11-27T10:51:36.961Z,3.60
2022-11-27T10:54:07.151Z,4.15
2022-11-27T10:56:53.970Z,4.53
2022-11-27T10:59:34.852Z,3.42
2022-11-27T11:02:03.272Z,3.85
2022-11-27T11:04:37.870Z,3.63
2022-11-27T11:07:23.259Z,4.40
2022-11-27T11:09:50.140Z,3.97
2022-11-27T11:12:20.940Z,4.28
2022-11-27T11:14:59.426Z,4.93
2022-11-27T11:17:37.184Z,4.20
2022-11-27T11:20:20.763Z,4.35
2022-11-27T11:22:48.542Z,4.43
2022-11-27T11:25:20.239Z,4.07
2022-11-27T11:27:49.775Z,5.32
2022-11-27T11:30:29.930Z,3.63
2022-11-27T11:33:02.213Z,3.55
2022-11-27T11:35:34.560Z,4.18
2022-11-27T11:38:06.710Z,4.55
2022-11-27T11:40:35.697Z,4.20
2022-11-27T11:43:06.546Z,3.33
2022-11-27T11:45:34.708Z,3.50
2022-11-27T11:48:17.782Z,3.92
2022-11-27T11:51:00.390Z,4.85
2022-11-27T11:53:37.749Z,6.03
2022-11-27T11:56:20.026Z,3.90
2022-11-27T12:01:45.923Z,3.55
2022-11-27T12:04:30.912Z,3.45
2022-11-27T12:07:09.319Z,3.38
2022-11-27T12:09:44.858Z,2.97
2022-11-27T12:12:56.404Z,3.00
2022-11-27T12:15:29.662Z,3.72
2022-11-27T12:18:11.999Z,3.88
2022-11-27T12:20:53.724Z,3.65
2022-11-27T12:23:41.755Z,2.97
2022-11-27T12:26:18.158Z,3.08
2022-11-27T12:28:58.972Z,3.10
2022-11-27T12:32:14.218Z,3.10
2022-11-27T12:34:47.992Z,3.63
2022-11-27T12:37:42.299Z,3.10
2022-11-27T12:40:32.440Z,3.67
2022-11-27T12:43:24.443Z,3.13
2022-11-27T12:46:03.794Z,3.88
2022-11-27T12:48:53.429Z,3.38
2022-11-27T12:51:59.044Z,2.80
2022-11-27T12:54:36.524Z,3.08
2022-11-27T12:57:10.758Z,3.35
2022-11-27T12:59:47.515Z,3.00
2022-11-27T13:02:38.129Z,3.22
2022-11-27T13:05:23.163Z,2.95
2022-11-27T13:08:05.103Z,3.70
2022-11-27T13:10:38.222Z,3.20
2022-11-27T13:13:12.975Z,3.58
2022-11-27T13:15:50.276Z,3.10
2022-11-27T13:18:36.056Z,3.63
2022-11-27T13:21:07.891Z,2.80
2022-11-27T13:23:35.193Z,3.25
2022-11-27T13:26:06.089Z,3.10
2022-11-27T13:28:41.933Z,3.65
2022-11-27T13:31:18.508Z,3.25
2022-11-27T13:33:46.591Z,2.80
2022-11-27T13:36:26.250Z,3.05
2022-11-27T13:38:57.785Z,2.65
2022-11-27T13:41:39.904Z,2.50
2022-11-27T13:44:24.205Z,2.80
2022-11-27T13:46:54.843Z,2.95
2022-11-27T13:49:27.426Z,2.75
2022-11-27T13:52:05.174Z,3.10
2022-11-27T13:54:31.972Z,2.90
2022-11-27T13:57:13.331Z,2.20
2022-11-27T13:59:40.129Z,2.88
2022-11-27T14:02:08.641Z,3.05
2022-11-27T14:04:35.965Z,3.72
2022-11-27T14:07:09.638Z,2.22
2022-11-27T14:09:58.281Z,2.55
2022-11-27T14:12:32.236Z,2.70
2022-11-27T14:15:21.467Z,2.58
2022-11-27T14:17:52.377Z,2.72
2022-11-27T14:20:30.106Z,2.50
2022-11-27T14:23:14.264Z,2.55
2022-11-27T14:25:41.595Z,2.67
2022-11-27T14:28:21.839Z,2.53
2022-11-27T14:31:01.489Z,3.40
2022-11-27T14:33:31.203Z,3.42
2022-11-27T14:36:00.293Z,7.00
2022-11-27T14:38:28.893Z,4.88
2022-11-27T14:41:17.438Z,3.05
2022-11-27T14:43:44.188Z,3.13
2022-11-27T14:46:20.587Z,3.15
2022-11-27T14:48:58.026Z,2.38
2022-11-27T14:51:27.108Z,2.20
2022-11-27T14:54:05.693Z,3.28
2022-11-27T14:56:35.175Z,3.60
2022-11-27T14:59:04.127Z,3.20
2022-11-27T15:01:32.931Z,2.08
2022-11-27T15:04:02.410Z,2.00
2022-11-27T15:06:35.793Z,1.77
2022-11-27T15:09:30.208Z,1.95
2022-11-27T15:12:09.104Z,2.50
2022-11-27T15:14:36.082Z,2.20
2022-11-27T15:17:02.942Z,2.42
2022-11-27T15:19:36.411Z,2.00
2022-11-27T15:22:03.907Z,2.63
2022-11-27T15:24:36.126Z,3.75
2022-11-27T15:27:14.946Z,2.60
2022-11-27T15:30:01.189Z,4.00
2022-11-27T15:32:34.647Z,4.15
2022-11-27T15:35:12.072Z,2.65
2022-11-27T15:37:39.198Z,1.73
2022-11-27T15:40:24.855Z,1.75
2022-11-27T15:42:51.535Z,2.78
2022-11-27T15:45:18.637Z,1.98
2022-11-27T15:47:45.454Z,1.70
2022-11-27T15:50:16.975Z,2.03
2022-11-27T15:52:43.946Z,2.03
2022-11-27T15:55:15.815Z,2.45
2022-11-27T15:57:42.962Z,2.00
2022-11-27T16:00:10.760Z,1.85
2022-11-27T16:02:40.815Z,2.08
2022-11-27T16:05:08.732Z,1.48
2022-11-27T16:07:35.592Z,1.70
2022-11-27T16:10:02.328Z,1.60
2022-11-27T16:12:29.038Z,1.50
2022-11-27T16:14:55.823Z,1.80
2022-11-27T16:17:22.572Z,2.03
2022-11-27T16:19:49.344Z,1.80
2022-11-27T16:22:16.137Z,1.75
2022-11-27T16:24:43.221Z,2.22
2022-11-27T16:27:10.294Z,2.03
2022-11-27T16:29:37.019Z,2.17
2022-11-27T16:32:03.996Z,1.40
2022-11-27T16:34:30.934Z,1.67
2022-11-27T16:36:57.750Z,2.30
2022-11-27T16:39:25.355Z,1.85
2022-11-27T16:41:52.400Z,1.67
2022-11-27T16:44:19.960Z,1.70
2022-11-27T16:46:46.767Z,1.52
2022-11-27T16:49:13.627Z,1.95
2022-11-27T16:51:44.782Z,1.70
2022-11-27T16:54:18.310Z,1.92
2022-11-27T16:56:46.318Z,1.90
2022-11-27T16:59:14.577Z,2.55
2022-11-27T17:01:42.574Z,2.03
2022-11-27T17:04:16.315Z,2.38
2022-11-27T17:06:43.032Z,1.50
2022-11-27T17:09:09.776Z,1.65
2022-11-27T17:11:40.841Z,1.63
2022-11-27T17:14:08.982Z,2.00
2022-11-27T17:16:37.077Z,1.77
2022-11-27T17:19:04.440Z,1.90
2022-11-27T17:21:33.936Z,2.00
2022-11-27T17:24:03.942Z,1.52
2022-11-27T17:26:38.537Z,1.50
2022-11-27T17:29:05.258Z,2.03
2022-11-27T17:31:33.662Z,1.70
2022-11-27T17:34:01.044Z,2.00
2022-11-27T17:36:36.516Z,2.13
2022-11-27T17:39:05.812Z,2.05
2022-11-27T17:41:33.015Z,2.17
2022-11-27T17:44:00.355Z,2.45
2022-11-27T17:46:28.800Z,2.17
2022-11-27T17:48:59.141Z,2.30
2022-11-27T17:51:28.065Z,2.13
2022-11-27T17:53:54.891Z,1.95
2022-11-27T17:56:23.452Z,2.17
2022-11-27T17:58:50.455Z,2.08
2022-11-27T18:01:24.606Z,1.70
2022-11-27T18:03:54.484Z,1.83
2022-11-27T18:06:22.797Z,1.27
2022-11-27T18:08:49.906Z,1.60
2022-11-27T18:11:25.378Z,1.48
2022-11-27T18:13:52.614Z,2.30
2022-11-27T18:16:23.624Z,2.00
2022-11-27T18:18:51.093Z,1.40
2022-11-27T18:21:20.248Z,1.80
2022-11-27T18:24:21.986Z,2.15
2022-11-27T18:29:22.420Z,1.95
2022-11-27T18:31:50.781Z,2.33
2022-11-27T18:34:17.923Z,1.73
2022-11-27T18:36:45.886Z,2.33
2022-11-27T18:39:13.288Z,1.83
2022-11-27T18:41:40.794Z,1.77
2022-11-27T18:44:08.745Z,1.75
2022-11-27T18:46:35.538Z,1.83
2022-11-27T18:49:02.546Z,1.60
2022-11-27T18:51:29.286Z,1.95
2022-11-27T18:53:57.956Z,1.90
2022-11-27T18:56:29.542Z,2.00
2022-11-27T18:59:05.581Z,1.55
2022-11-27T19:01:40.968Z,1.42
2022-11-27T19:04:10.880Z,2.08
2022-11-27T19:06:38.580Z,2.35
2022-11-27T19:09:06.508Z,2.33
2022-11-27T19:11:34.805Z,1.98
2022-11-27T19:14:02.555Z,1.95
2022-11-27T19:16:32.916Z,1.90
2022-11-27T19:19:02.490Z,2.35
2022-11-27T19:21:31.129Z,2.40
2022-11-27T19:23:59.962Z,2.00
2022-11-27T19:26:33.670Z,2.28
2022-11-27T19:29:03.581Z,2.20
2022-11-27T19:31:32.891Z,1.95
2022-11-27T19:34:02.083Z,1.80
2022-11-27T19:36:30.923Z,2.10
2022-11-27T19:39:07.374Z,1.65
2022-11-27T19:41:34.862Z,1.83
2022-11-27T19:44:03.510Z,2.33
2022-11-27T19:46:32.624Z,2.50
2022-11-27T19:49:02.218Z,1.95
2022-11-27T19:51:33.001Z,1.95
2022-11-27T19:54:05.681Z,2.47
2022-11-27T19:56:37.362Z,2.05
2022-11-27T19:59:04.396Z,1.70
2022-11-27T20:01:31.488Z,1.80
2022-11-27T20:03:58.895Z,2.35
2022-11-27T20:06:27.729Z,2.20
2022-11-27T20:09:00.294Z,1.92
2022-11-27T20:11:34.259Z,2.05
2022-11-27T20:14:02.463Z,1.90
2022-11-27T20:16:33.696Z,1.85
2022-11-27T20:19:02.581Z,2.30
2022-11-27T20:21:29.573Z,1.80
2022-11-27T20:23:57.552Z,2.25
2022-11-27T20:26:27.295Z,1.95
2022-11-27T20:28:54.520Z,1.55
2022-11-27T20:31:30.005Z,1.80
2022-11-27T20:34:03.506Z,1.90
2022-11-27T20:36:33.976Z,2.53
2022-11-27T20:39:01.808Z,1.80
2022-11-27T20:41:29.541Z,1.80
2022-11-27T20:43:59.351Z,1.88
2022-11-27T20:46:26.932Z,1.77
2022-11-27T20:48:54.580Z,2.20
2022-11-27T20:51:27.411Z,2.00
2022-11-27T20:53:56.554Z,2.10
2022-11-27T20:56:24.261Z,2.72
2022-11-27T20:58:51.134Z,1.80
2022-11-27T21:01:19.693Z,2.47
2022-11-27T21:03:48.751Z,1.77
2022-11-27T21:06:16.626Z,2.30
2022-11-27T21:08:43.397Z,2.30
2022-11-27T21:11:24.841Z,1.98
2022-11-27T21:14:01.139Z,2.35
2022-11-27T21:16:32.594Z,2.70
2022-11-27T21:19:02.999Z,2.40
2022-11-27T21:21:30.787Z,2.75
2022-11-27T21:23:59.383Z,2.47
2022-11-27T21:26:26.950Z,2.58
2022-11-27T21:28:53.945Z,1.90
2022-11-27T21:31:27.434Z,2.40
2022-11-27T21:33:59.998Z,2.92
2022-11-27T21:36:30.783Z,2.60
2022-11-27T21:38:58.700Z,2.10
2022-11-27T21:41:26.564Z,3.08
2022-11-27T21:43:58.862Z,2.70
2022-11-27T21:46:28.685Z,3.25
2022-11-27T21:49:00.070Z,3.08
2022-11-27T21:51:29.638Z,2.90
2022-11-27T21:53:58.959Z,2.45
2022-11-27T21:56:28.494Z,2.83
2022-11-27T21:58:55.646Z,4.35
2022-11-27T22:01:24.096Z,5.45
2022-11-27T22:03:54.025Z,6.00
2022-11-27T22:06:21.963Z,4.53
2022-11-27T22:08:50.307Z,5.15
2022-11-27T22:11:21.259Z,3.83
2022-11-27T22:16:17.354Z,4.28
2022-11-27T22:18:45.326Z,4.25
2022-11-27T22:21:13.645Z,2.80
2022-11-27T22:23:41.941Z,3.45
2022-11-27T22:26:11.587Z,2.95
2022-11-27T22:28:38.691Z,3.05
2022-11-27T22:31:16.872Z,2.50
2022-11-27T22:33:44.676Z,2.40
2022-11-27T22:36:23.613Z,2.58
2022-11-27T22:38:53.189Z,2.75
2022-11-27T22:41:22.400Z,2.65
2022-11-27T22:43:49.831Z,2.85
2022-11-27T22:46:28.967Z,2.95
2022-11-27T22:49:00.272Z,3.50
2022-11-27T22:51:29.899Z,3.25
2022-11-27T22:53:57.624Z,3.17
2022-11-27T22:56:24.708Z,3.08
2022-11-27T22:59:06.089Z,2.63
2022-11-27T23:01:40.848Z,2.63
2022-11-27T23:04:07.749Z,2.63
2022-11-27T23:06:34.567Z,2.45
2022-11-27T23:09:01.388Z,2.58
2022-11-27T23:11:28.709Z,2.67
2022-11-27T23:13:57.605Z,2.63
2022-11-27T23:16:27.385Z,3.00
2022-11-27T23:18:54.218Z,2.70
2022-11-27T23:21:22.935Z,3.72
2022-11-27T23:23:50.095Z,2.58
2022-11-27T23:26:20.499Z,2.70
2022-11-27T23:28:49.153Z,2.35
2022-11-27T23:31:30.033Z,2.45
2022-11-27T23:33:58.177Z,2.50
2022-11-27T23:36:25.208Z,2.67
2022-11-27T23:38:51.923Z,2.90
2022-11-27T23:41:24.618Z,2.42
2022-11-27T23:43:52.573Z,2.20
2022-11-27T23:46:22.131Z,2.30
2022-11-27T23:48:49.300Z,2.72
2022-11-27T23:51:18.649Z,2.20
2022-11-27T23:53:46.511Z,2.80
2022-11-27T23:56:25.376Z,2.53
2022-11-27T23:58:54.447Z,2.13
